sensor_id;sensor_type;location;lat;lon;timestamp;P1;durP1;ratioP1;P2;durP2;ratioP2
49582;SDS011;36329;48.816;44.624;2023-01-01T00:01:28;4;;;2.7;;
49582;SDS011;36329;48.816;44.624;2023-01-01T00:04:30;6.1;;;3;;
49582;SDS011;36329;48.816;44.624;2023-01-01T00:07:31;5.1;;;3;;
49582;SDS011;36329;48.816;44.624;2023-01-01T00:10:33;4.4;;;3;;
49582;SDS011;36329;48.816;44.624;2023-01-01T00:13:35;4.9;;;2.7;;
49582;SDS011;36329;48.816;44.624;2023-01-01T00:16:38;5.2;;;2.7;;
49582;SDS011;36329;48.816;44.624;2023-01-01T00:19:40;4.4;;;2.8;;
49582;SDS011;36329;48.816;44.624;2023-01-01T00:22:42;5.1;;;3;;
49582;SDS011;36329;48.816;44.624;2023-01-01T00:25:44;4.9;;;3.2;;
49582;SDS011;36329;48.816;44.624;2023-01-01T00:28:46;5.1;;;3.1;;
49582;SDS011;36329;48.816;44.624;2023-01-01T00:31:47;5.1;;;3.1;;
49582;SDS011;36329;48.816;44.624;2023-01-01T00:34:49;5.3;;;3;;
49582;SDS011;36329;48.816;44.624;2023-01-01T00:37:51;5.4;;;3.2;;
49582;SDS011;36329;48.816;44.624;2023-01-01T00:40:53;5;;;3.1;;
49582;SDS011;36329;48.816;44.624;2023-01-01T00:43:55;5;;;3;;
49582;SDS011;36329;48.816;44.624;2023-01-01T00:46:58;7.3;;;3.3;;
49582;SDS011;36329;48.816;44.624;2023-01-01T00:50:00;7;;;3.2;;
49582;SDS011;36329;48.816;44.624;2023-01-01T00:53:02;4.8;;;3;;
49582;SDS011;36329;48.816;44.624;2023-01-01T00:56:04;4.5;;;2.8;;
49582;SDS011;36329;48.816;44.624;2023-01-01T00:59:06;4.5;;;3;;
49582;SDS011;36329;48.816;44.624;2023-01-01T01:02:08;4.7;;;3.1;;
49582;SDS011;36329;48.816;44.624;2023-01-01T01:05:09;5.4;;;2.9;;
49582;SDS011;36329;48.816;44.624;2023-01-01T01:08:11;4.1;;;2.9;;
49582;SDS011;36329;48.816;44.624;2023-01-01T01:11:14;4.9;;;2.7;;
49582;SDS011;36329;48.816;44.624;2023-01-01T01:14:16;5.3;;;2.7;;
49582;SDS011;36329;48.816;44.624;2023-01-01T01:17:18;4.4;;;2.5;;
49582;SDS011;36329;48.816;44.624;2023-01-01T01:20:20;5;;;2.9;;
49582;SDS011;36329;48.816;44.624;2023-01-01T01:23:21;3.6;;;2.5;;
49582;SDS011;36329;48.816;44.624;2023-01-01T01:26:24;3.8;;;2.5;;
49582;SDS011;36329;48.816;44.624;2023-01-01T01:29:27;3.2;;;2.3;;
49582;SDS011;36329;48.816;44.624;2023-01-01T01:32:29;4;;;2.3;;
49582;SDS011;36329;48.816;44.624;2023-01-01T01:35:30;3.3;;;2.2;;
49582;SDS011;36329;48.816;44.624;2023-01-01T01:38:32;3.5;;;2.3;;
49582;SDS011;36329;48.816;44.624;2023-01-01T01:41:33;4.1;;;2.2;;
49582;SDS011;36329;48.816;44.624;2023-01-01T01:44:47;3.6;;;2.2;;
49582;SDS011;36329;48.816;44.624;2023-01-01T01:47:52;3.7;;;2.1;;
49582;SDS011;36329;48.816;44.624;2023-01-01T01:50:56;3.9;;;2.2;;
49582;SDS011;36329;48.816;44.624;2023-01-01T01:53:59;3.2;;;2.1;;
49582;SDS011;36329;48.816;44.624;2023-01-01T01:57:04;4.5;;;2;;
49582;SDS011;36329;48.816;44.624;2023-01-01T02:00:08;3.8;;;2.1;;
49582;SDS011;36329;48.816;44.624;2023-01-01T02:03:11;4.4;;;2.1;;
49582;SDS011;36329;48.816;44.624;2023-01-01T02:06:18;3.7;;;2.2;;
49582;SDS011;36329;48.816;44.624;2023-01-01T02:09:20;2.1;;;1.7;;
49582;SDS011;36329;48.816;44.624;2023-01-01T02:12:22;2.2;;;1.8;;
49582;SDS011;36329;48.816;44.624;2023-01-01T02:15:27;3.3;;;2;;
49582;SDS011;36329;48.816;44.624;2023-01-01T02:18:34;4.7;;;2.3;;
49582;SDS011;36329;48.816;44.624;2023-01-01T02:21:48;2.2;;;1.9;;
49582;SDS011;36329;48.816;44.624;2023-01-01T02:24:58;2.5;;;2;;
49582;SDS011;36329;48.816;44.624;2023-01-01T02:28:14;3.3;;;2;;
49582;SDS011;36329;48.816;44.624;2023-01-01T02:31:25;3.2;;;2.1;;
49582;SDS011;36329;48.816;44.624;2023-01-01T02:34:31;3.9;;;2.3;;
49582;SDS011;36329;48.816;44.624;2023-01-01T02:37:36;4.1;;;2.5;;
49582;SDS011;36329;48.816;44.624;2023-01-01T02:40:40;5.1;;;2.7;;
49582;SDS011;36329;48.816;44.624;2023-01-01T02:43:51;3.8;;;2.5;;
49582;SDS011;36329;48.816;44.624;2023-01-01T02:46:54;4.3;;;2.8;;
49582;SDS011;36329;48.816;44.624;2023-01-01T02:49:57;3.9;;;2.7;;
49582;SDS011;36329;48.816;44.624;2023-01-01T02:53:06;3.9;;;2.6;;
49582;SDS011;36329;48.816;44.624;2023-01-01T02:56:20;4.5;;;2.7;;
49582;SDS011;36329;48.816;44.624;2023-01-01T02:59:32;4.5;;;2.3;;
49582;SDS011;36329;48.816;44.624;2023-01-01T03:02:41;3.4;;;2.6;;
49582;SDS011;36329;48.816;44.624;2023-01-01T03:05:54;3.9;;;2.6;;
49582;SDS011;36329;48.816;44.624;2023-01-01T03:09:02;4.2;;;2.7;;
49582;SDS011;36329;48.816;44.624;2023-01-01T03:12:14;4.9;;;2.8;;
49582;SDS011;36329;48.816;44.624;2023-01-01T03:15:25;4.6;;;2.8;;
49582;SDS011;36329;48.816;44.624;2023-01-01T03:18:32;4.7;;;3;;
49582;SDS011;36329;48.816;44.624;2023-01-01T03:21:40;3.7;;;2.8;;
49582;SDS011;36329;48.816;44.624;2023-01-01T03:24:44;4.8;;;3;;
49582;SDS011;36329;48.816;44.624;2023-01-01T03:27:51;4.9;;;3;;
49582;SDS011;36329;48.816;44.624;2023-01-01T03:30:56;5.7;;;2.9;;
49582;SDS011;36329;48.816;44.624;2023-01-01T03:34:00;5;;;2.9;;
49582;SDS011;36329;48.816;44.624;2023-01-01T03:37:06;5.7;;;3.2;;
49582;SDS011;36329;48.816;44.624;2023-01-01T03:40:11;4.8;;;2.9;;
49582;SDS011;36329;48.816;44.624;2023-01-01T03:43:15;4.2;;;2.8;;
49582;SDS011;36329;48.816;44.624;2023-01-01T03:46:25;5.2;;;2.8;;
49582;SDS011;36329;48.816;44.624;2023-01-01T03:49:30;4.7;;;2.8;;
49582;SDS011;36329;48.816;44.624;2023-01-01T03:52:37;3.6;;;2.8;;
49582;SDS011;36329;48.816;44.624;2023-01-01T03:55:48;4.9;;;2.9;;
49582;SDS011;36329;48.816;44.624;2023-01-01T03:58:58;4.2;;;2.8;;
49582;SDS011;36329;48.816;44.624;2023-01-01T04:02:07;4.7;;;2.8;;
49582;SDS011;36329;48.816;44.624;2023-01-01T04:05:11;5;;;3;;
49582;SDS011;36329;48.816;44.624;2023-01-01T04:08:14;5.6;;;2.9;;
49582;SDS011;36329;48.816;44.624;2023-01-01T04:11:18;4.4;;;2.9;;
49582;SDS011;36329;48.816;44.624;2023-01-01T04:14:26;5.1;;;2.8;;
49582;SDS011;36329;48.816;44.624;2023-01-01T04:17:29;4.7;;;2.8;;
49582;SDS011;36329;48.816;44.624;2023-01-01T04:20:31;5.8;;;2.8;;
49582;SDS011;36329;48.816;44.624;2023-01-01T04:23:33;5.5;;;3.1;;
49582;SDS011;36329;48.816;44.624;2023-01-01T04:26:34;4.6;;;3;;
49582;SDS011;36329;48.816;44.624;2023-01-01T04:29:36;4.6;;;3.2;;
49582;SDS011;36329;48.816;44.624;2023-01-01T04:32:38;5.9;;;3.3;;
49582;SDS011;36329;48.816;44.624;2023-01-01T04:35:40;6.3;;;3.7;;
49582;SDS011;36329;48.816;44.624;2023-01-01T04:38:41;5.3;;;3.4;;
49582;SDS011;36329;48.816;44.624;2023-01-01T04:41:45;5.4;;;3.3;;
49582;SDS011;36329;48.816;44.624;2023-01-01T04:44:47;4.6;;;3.2;;
49582;SDS011;36329;48.816;44.624;2023-01-01T04:47:48;5.7;;;3.3;;
49582;SDS011;36329;48.816;44.624;2023-01-01T04:50:54;5.4;;;3.5;;
49582;SDS011;36329;48.816;44.624;2023-01-01T04:53:57;5.7;;;3.3;;
49582;SDS011;36329;48.816;44.624;2023-01-01T04:56:59;6.2;;;3.6;;
49582;SDS011;36329;48.816;44.624;2023-01-01T05:00:00;6.9;;;4;;
49582;SDS011;36329;48.816;44.624;2023-01-01T05:03:02;5.6;;;3.8;;
49582;SDS011;36329;48.816;44.624;2023-01-01T05:06:05;6.3;;;3.5;;
49582;SDS011;36329;48.816;44.624;2023-01-01T05:09:09;6.7;;;3.7;;
49582;SDS011;36329;48.816;44.624;2023-01-01T05:12:11;6.1;;;3.7;;
49582;SDS011;36329;48.816;44.624;2023-01-01T05:15:13;6;;;3.7;;
49582;SDS011;36329;48.816;44.624;2023-01-01T05:18:14;6;;;3.6;;
49582;SDS011;36329;48.816;44.624;2023-01-01T05:21:17;4.8;;;3.3;;
49582;SDS011;36329;48.816;44.624;2023-01-01T05:24:20;5.7;;;3.4;;
49582;SDS011;36329;48.816;44.624;2023-01-01T05:27:22;7.1;;;3.4;;
49582;SDS011;36329;48.816;44.624;2023-01-01T05:30:23;7.7;;;3.6;;
49582;SDS011;36329;48.816;44.624;2023-01-01T05:33:26;5.5;;;3.2;;
49582;SDS011;36329;48.816;44.624;2023-01-01T05:36:28;4.8;;;3.2;;
49582;SDS011;36329;48.816;44.624;2023-01-01T05:39:33;5.6;;;3.3;;
49582;SDS011;36329;48.816;44.624;2023-01-01T05:42:34;6.3;;;3.4;;
49582;SDS011;36329;48.816;44.624;2023-01-01T05:45:36;6.1;;;3.4;;
49582;SDS011;36329;48.816;44.624;2023-01-01T05:48:38;6.3;;;3.3;;
49582;SDS011;36329;48.816;44.624;2023-01-01T05:51:39;5.8;;;3.4;;
49582;SDS011;36329;48.816;44.624;2023-01-01T05:54:42;5.5;;;3.5;;
49582;SDS011;36329;48.816;44.624;2023-01-01T05:57:43;7.4;;;3.5;;
49582;SDS011;36329;48.816;44.624;2023-01-01T06:00:45;6.1;;;3.3;;
49582;SDS011;36329;48.816;44.624;2023-01-01T06:03:47;6.9;;;3.7;;
49582;SDS011;36329;48.816;44.624;2023-01-01T06:06:51;5;;;3.3;;
49582;SDS011;36329;48.816;44.624;2023-01-01T06:09:52;5.4;;;3.5;;
49582;SDS011;36329;48.816;44.624;2023-01-01T06:12:54;5.5;;;3.4;;
49582;SDS011;36329;48.816;44.624;2023-01-01T06:15:56;7.8;;;4.1;;
49582;SDS011;36329;48.816;44.624;2023-01-01T06:18:59;7.2;;;4.3;;
49582;SDS011;36329;48.816;44.624;2023-01-01T06:22:00;7;;;4.2;;
49582;SDS011;36329;48.816;44.624;2023-01-01T06:25:02;8.1;;;4;;
49582;SDS011;36329;48.816;44.624;2023-01-01T06:28:04;6.9;;;4.4;;
49582;SDS011;36329;48.816;44.624;2023-01-01T06:31:07;6.8;;;4.4;;
49582;SDS011;36329;48.816;44.624;2023-01-01T06:34:09;7.1;;;4.2;;
49582;SDS011;36329;48.816;44.624;2023-01-01T06:37:12;8;;;4.8;;
49582;SDS011;36329;48.816;44.624;2023-01-01T06:40:14;7.1;;;4.4;;
49582;SDS011;36329;48.816;44.624;2023-01-01T06:43:16;8.1;;;4.7;;
49582;SDS011;36329;48.816;44.624;2023-01-01T06:46:18;7.4;;;4.8;;
49582;SDS011;36329;48.816;44.624;2023-01-01T06:49:21;10;;;5.4;;
49582;SDS011;36329;48.816;44.624;2023-01-01T06:52:23;8.7;;;5.6;;
49582;SDS011;36329;48.816;44.624;2023-01-01T06:55:25;8.7;;;5.6;;
49582;SDS011;36329;48.816;44.624;2023-01-01T06:58:27;9.4;;;5.7;;
49582;SDS011;36329;48.816;44.624;2023-01-01T07:01:29;9.1;;;5.8;;
49582;SDS011;36329;48.816;44.624;2023-01-01T07:04:32;10.4;;;6.5;;
49582;SDS011;36329;48.816;44.624;2023-01-01T07:07:34;11.3;;;6.5;;
49582;SDS011;36329;48.816;44.624;2023-01-01T07:10:36;11.2;;;6.6;;
49582;SDS011;36329;48.816;44.624;2023-01-01T07:13:37;10.5;;;7;;
49582;SDS011;36329;48.816;44.624;2023-01-01T07:16:39;10.3;;;7;;
49582;SDS011;36329;48.816;44.624;2023-01-01T07:19:41;11.2;;;7.2;;
49582;SDS011;36329;48.816;44.624;2023-01-01T07:22:43;11.4;;;7.6;;
49582;SDS011;36329;48.816;44.624;2023-01-01T07:25:45;13.3;;;7.3;;
49582;SDS011;36329;48.816;44.624;2023-01-01T07:28:49;12.1;;;7.7;;
49582;SDS011;36329;48.816;44.624;2023-01-01T07:31:51;13.5;;;8;;
49582;SDS011;36329;48.816;44.624;2023-01-01T07:34:54;13;;;8.2;;
49582;SDS011;36329;48.816;44.624;2023-01-01T07:37:57;13.8;;;8.4;;
49582;SDS011;36329;48.816;44.624;2023-01-01T07:40:59;14;;;8.9;;
49582;SDS011;36329;48.816;44.624;2023-01-01T07:44:01;14.2;;;9.5;;
49582;SDS011;36329;48.816;44.624;2023-01-01T07:47:19;16.1;;;9.5;;
49582;SDS011;36329;48.816;44.624;2023-01-01T07:50:23;16;;;9.7;;
49582;SDS011;36329;48.816;44.624;2023-01-01T07:53:26;16.8;;;9.6;;
49582;SDS011;36329;48.816;44.624;2023-01-01T07:56:28;14.5;;;9.4;;
49582;SDS011;36329;48.816;44.624;2023-01-01T07:59:30;13.1;;;8.7;;
49582;SDS011;36329;48.816;44.624;2023-01-01T08:02:31;14;;;8.6;;
49582;SDS011;36329;48.816;44.624;2023-01-01T08:05:33;15.2;;;9.2;;
49582;SDS011;36329;48.816;44.624;2023-01-01T08:08:35;13.8;;;8.8;;
49582;SDS011;36329;48.816;44.624;2023-01-01T08:11:37;16.6;;;9.2;;
49582;SDS011;36329;48.816;44.624;2023-01-01T08:14:39;14.4;;;8.7;;
49582;SDS011;36329;48.816;44.624;2023-01-01T08:17:40;13.8;;;8.5;;
49582;SDS011;36329;48.816;44.624;2023-01-01T08:20:42;13.3;;;8.5;;
49582;SDS011;36329;48.816;44.624;2023-01-01T08:23:44;13.3;;;8.5;;
49582;SDS011;36329;48.816;44.624;2023-01-01T08:26:47;15.9;;;9.2;;
49582;SDS011;36329;48.816;44.624;2023-01-01T08:29:49;13.4;;;8.4;;
49582;SDS011;36329;48.816;44.624;2023-01-01T08:32:51;14.4;;;9;;
49582;SDS011;36329;48.816;44.624;2023-01-01T08:35:52;15.3;;;9.4;;
49582;SDS011;36329;48.816;44.624;2023-01-01T08:38:54;15.4;;;9.2;;
49582;SDS011;36329;48.816;44.624;2023-01-01T08:41:56;15.4;;;9.1;;
49582;SDS011;36329;48.816;44.624;2023-01-01T08:44:57;14.7;;;9.6;;
49582;SDS011;36329;48.816;44.624;2023-01-01T08:47:59;14.8;;;9.3;;
49582;SDS011;36329;48.816;44.624;2023-01-01T08:51:01;15.3;;;9.4;;
49582;SDS011;36329;48.816;44.624;2023-01-01T08:54:03;14.6;;;9.3;;
49582;SDS011;36329;48.816;44.624;2023-01-01T08:57:05;14.4;;;9.3;;
49582;SDS011;36329;48.816;44.624;2023-01-01T09:00:07;14.9;;;9.6;;
49582;SDS011;36329;48.816;44.624;2023-01-01T09:03:09;14.2;;;9.2;;
49582;SDS011;36329;48.816;44.624;2023-01-01T09:06:10;15.2;;;8.9;;
49582;SDS011;36329;48.816;44.624;2023-01-01T09:09:12;14.6;;;9.2;;
49582;SDS011;36329;48.816;44.624;2023-01-01T09:12:15;16.5;;;9.5;;
49582;SDS011;36329;48.816;44.624;2023-01-01T09:15:17;17.3;;;10.1;;
49582;SDS011;36329;48.816;44.624;2023-01-01T09:18:19;14.5;;;8.9;;
49582;SDS011;36329;48.816;44.624;2023-01-01T09:21:21;15.6;;;9.5;;
49582;SDS011;36329;48.816;44.624;2023-01-01T09:24:23;14.8;;;9.8;;
49582;SDS011;36329;48.816;44.624;2023-01-01T09:27:25;14.3;;;9.1;;
49582;SDS011;36329;48.816;44.624;2023-01-01T09:30:26;13.6;;;9.5;;
49582;SDS011;36329;48.816;44.624;2023-01-01T09:33:28;15.2;;;9.1;;
49582;SDS011;36329;48.816;44.624;2023-01-01T09:36:30;15.2;;;9.3;;
49582;SDS011;36329;48.816;44.624;2023-01-01T09:39:33;16.2;;;9.4;;
49582;SDS011;36329;48.816;44.624;2023-01-01T09:42:35;13.6;;;9.3;;
49582;SDS011;36329;48.816;44.624;2023-01-01T09:45:43;14.5;;;9;;
49582;SDS011;36329;48.816;44.624;2023-01-01T09:48:56;14.7;;;9.4;;
49582;SDS011;36329;48.816;44.624;2023-01-01T09:52:02;15.2;;;9.2;;
49582;SDS011;36329;48.816;44.624;2023-01-01T09:55:08;13.9;;;8.9;;
49582;SDS011;36329;48.816;44.624;2023-01-01T09:58:15;17.1;;;9.7;;
49582;SDS011;36329;48.816;44.624;2023-01-01T10:01:25;18.8;;;10.2;;
49582;SDS011;36329;48.816;44.624;2023-01-01T10:04:39;16.3;;;9.8;;
49582;SDS011;36329;48.816;44.624;2023-01-01T10:07:47;16.4;;;9.7;;
49582;SDS011;36329;48.816;44.624;2023-01-01T10:10:56;18.3;;;10.3;;
49582;SDS011;36329;48.816;44.624;2023-01-01T10:14:09;17;;;9.7;;
49582;SDS011;36329;48.816;44.624;2023-01-01T10:17:18;17.3;;;10.4;;
49582;SDS011;36329;48.816;44.624;2023-01-01T10:20:32;16.6;;;10.7;;
49582;SDS011;36329;48.816;44.624;2023-01-01T10:23:40;16.9;;;10.5;;
49582;SDS011;36329;48.816;44.624;2023-01-01T10:26:46;17.5;;;10.7;;
49582;SDS011;36329;48.816;44.624;2023-01-01T10:29:49;18.9;;;10.8;;
49582;SDS011;36329;48.816;44.624;2023-01-01T10:32:53;20.3;;;10.6;;
49582;SDS011;36329;48.816;44.624;2023-01-01T10:35:55;19.5;;;11.2;;
49582;SDS011;36329;48.816;44.624;2023-01-01T10:38:57;21.4;;;11.3;;
49582;SDS011;36329;48.816;44.624;2023-01-01T10:41:59;18.8;;;11.3;;
49582;SDS011;36329;48.816;44.624;2023-01-01T10:45:03;21.8;;;11.2;;
49582;SDS011;36329;48.816;44.624;2023-01-01T10:48:10;19.1;;;10.9;;
49582;SDS011;36329;48.816;44.624;2023-01-01T10:51:13;20.7;;;11.1;;
49582;SDS011;36329;48.816;44.624;2023-01-01T10:54:23;20.6;;;11.4;;
49582;SDS011;36329;48.816;44.624;2023-01-01T10:57:31;20.5;;;11;;
49582;SDS011;36329;48.816;44.624;2023-01-01T11:00:35;20.6;;;11.3;;
49582;SDS011;36329;48.816;44.624;2023-01-01T11:03:37;19.2;;;11.3;;
49582;SDS011;36329;48.816;44.624;2023-01-01T11:06:53;21.1;;;11.2;;
49582;SDS011;36329;48.816;44.624;2023-01-01T11:09:56;19.2;;;10.5;;
49582;SDS011;36329;48.816;44.624;2023-01-01T11:13:01;21.1;;;11.4;;
49582;SDS011;36329;48.816;44.624;2023-01-01T11:16:05;19.6;;;11.4;;
49582;SDS011;36329;48.816;44.624;2023-01-01T11:19:16;19.1;;;11;;
49582;SDS011;36329;48.816;44.624;2023-01-01T11:25:40;19.4;;;10.8;;
49582;SDS011;36329;48.816;44.624;2023-01-01T11:28:58;19.7;;;10.8;;
49582;SDS011;36329;48.816;44.624;2023-01-01T11:32:02;18.2;;;10.7;;
49582;SDS011;36329;48.816;44.624;2023-01-01T11:35:14;17.7;;;10.6;;
49582;SDS011;36329;48.816;44.624;2023-01-01T11:38:21;21.6;;;11.3;;
49582;SDS011;36329;48.816;44.624;2023-01-01T11:41:25;17.9;;;10.6;;
49582;SDS011;36329;48.816;44.624;2023-01-01T11:44:30;17.2;;;10.5;;
49582;SDS011;36329;48.816;44.624;2023-01-01T11:47:37;15.5;;;9.8;;
49582;SDS011;36329;48.816;44.624;2023-01-01T11:50:40;15.7;;;9.4;;
49582;SDS011;36329;48.816;44.624;2023-01-01T11:53:50;15.6;;;8.5;;
49582;SDS011;36329;48.816;44.624;2023-01-01T11:56:53;17.3;;;9.1;;
49582;SDS011;36329;48.816;44.624;2023-01-01T12:00:04;14.4;;;8.9;;
49582;SDS011;36329;48.816;44.624;2023-01-01T12:03:11;15;;;8.6;;
49582;SDS011;36329;48.816;44.624;2023-01-01T12:06:19;15.5;;;8.9;;
49582;SDS011;36329;48.816;44.624;2023-01-01T12:09:27;14.4;;;8.3;;
49582;SDS011;36329;48.816;44.624;2023-01-01T12:12:36;14.7;;;8.4;;
49582;SDS011;36329;48.816;44.624;2023-01-01T12:15:45;13.3;;;8.1;;
49582;SDS011;36329;48.816;44.624;2023-01-01T12:18:55;13.9;;;8.1;;
49582;SDS011;36329;48.816;44.624;2023-01-01T12:22:04;14.2;;;8.3;;
49582;SDS011;36329;48.816;44.624;2023-01-01T12:25:12;13.3;;;7.5;;
49582;SDS011;36329;48.816;44.624;2023-01-01T12:28:20;14;;;7.9;;
49582;SDS011;36329;48.816;44.624;2023-01-01T12:31:38;12.1;;;7.3;;
49582;SDS011;36329;48.816;44.624;2023-01-01T12:34:55;11.8;;;6.9;;
49582;SDS011;36329;48.816;44.624;2023-01-01T12:38:09;12;;;6.8;;
49582;SDS011;36329;48.816;44.624;2023-01-01T12:41:23;11.7;;;7;;
49582;SDS011;36329;48.816;44.624;2023-01-01T12:44:36;12.7;;;6.7;;
49582;SDS011;36329;48.816;44.624;2023-01-01T12:47:51;12.4;;;6.8;;
49582;SDS011;36329;48.816;44.624;2023-01-01T12:51:03;10.9;;;6.1;;
49582;SDS011;36329;48.816;44.624;2023-01-01T12:54:32;12.6;;;6.8;;
49582;SDS011;36329;48.816;44.624;2023-01-01T12:57:45;11.6;;;6.5;;
49582;SDS011;36329;48.816;44.624;2023-01-01T13:00:53;9.4;;;6.1;;
49582;SDS011;36329;48.816;44.624;2023-01-01T13:03:59;9.8;;;6.1;;
49582;SDS011;36329;48.816;44.624;2023-01-01T13:07:05;9.7;;;6.3;;
49582;SDS011;36329;48.816;44.624;2023-01-01T13:10:17;11.1;;;6.3;;
49582;SDS011;36329;48.816;44.624;2023-01-01T13:13:24;9.7;;;5.7;;
49582;SDS011;36329;48.816;44.624;2023-01-01T13:16:34;9.5;;;5.6;;
49582;SDS011;36329;48.816;44.624;2023-01-01T13:19:38;8.8;;;5.6;;
49582;SDS011;36329;48.816;44.624;2023-01-01T13:22:40;8;;;5.6;;
49582;SDS011;36329;48.816;44.624;2023-01-01T13:25:42;8;;;5.4;;
49582;SDS011;36329;48.816;44.624;2023-01-01T13:28:45;7.5;;;5.1;;
49582;SDS011;36329;48.816;44.624;2023-01-01T13:32:15;7.4;;;4.9;;
49582;SDS011;36329;48.816;44.624;2023-01-01T13:35:17;8.5;;;5.4;;
49582;SDS011;36329;48.816;44.624;2023-01-01T13:41:44;9;;;5.9;;
49582;SDS011;36329;48.816;44.624;2023-01-01T13:44:46;9.8;;;5.3;;
49582;SDS011;36329;48.816;44.624;2023-01-01T13:47:53;9.1;;;5.5;;
49582;SDS011;36329;48.816;44.624;2023-01-01T13:51:08;7.6;;;5.2;;
49582;SDS011;36329;48.816;44.624;2023-01-01T13:54:25;9;;;5.4;;
49582;SDS011;36329;48.816;44.624;2023-01-01T13:57:44;10.6;;;5.4;;
49582;SDS011;36329;48.816;44.624;2023-01-01T14:00:59;7.5;;;4.8;;
49582;SDS011;36329;48.816;44.624;2023-01-01T14:04:12;8.8;;;5.4;;
49582;SDS011;36329;48.816;44.624;2023-01-01T14:07:26;7.8;;;5.4;;
49582;SDS011;36329;48.816;44.624;2023-01-01T14:10:31;8.7;;;5.4;;
49582;SDS011;36329;48.816;44.624;2023-01-01T14:13:39;7.5;;;5.4;;
49582;SDS011;36329;48.816;44.624;2023-01-01T14:16:41;7.3;;;5;;
49582;SDS011;36329;48.816;44.624;2023-01-01T14:19:43;8.7;;;5.5;;
49582;SDS011;36329;48.816;44.624;2023-01-01T14:22:45;8.8;;;5.2;;
49582;SDS011;36329;48.816;44.624;2023-01-01T14:25:48;7;;;5.3;;
49582;SDS011;36329;48.816;44.624;2023-01-01T14:28:52;7.3;;;5.4;;
49582;SDS011;36329;48.816;44.624;2023-01-01T14:31:53;7.9;;;5.6;;
49582;SDS011;36329;48.816;44.624;2023-01-01T14:34:58;8.3;;;6;;
49582;SDS011;36329;48.816;44.624;2023-01-01T14:41:25;7.8;;;5.4;;
49582;SDS011;36329;48.816;44.624;2023-01-01T14:44:49;9.1;;;5.7;;
49582;SDS011;36329;48.816;44.624;2023-01-01T14:47:52;9.4;;;5.8;;
49582;SDS011;36329;48.816;44.624;2023-01-01T14:50:56;9.6;;;5.6;;
49582;SDS011;36329;48.816;44.624;2023-01-01T14:54:00;8.6;;;5.7;;
49582;SDS011;36329;48.816;44.624;2023-01-01T14:57:07;8.6;;;5.5;;
49582;SDS011;36329;48.816;44.624;2023-01-01T15:00:14;8.4;;;6.2;;
49582;SDS011;36329;48.816;44.624;2023-01-01T15:03:22;9;;;6;;
49582;SDS011;36329;48.816;44.624;2023-01-01T15:06:24;9.7;;;6.2;;
49582;SDS011;36329;48.816;44.624;2023-01-01T15:09:25;9.6;;;5.9;;
49582;SDS011;36329;48.816;44.624;2023-01-01T15:12:29;9.6;;;5.8;;
49582;SDS011;36329;48.816;44.624;2023-01-01T15:15:36;9.4;;;6.3;;
49582;SDS011;36329;48.816;44.624;2023-01-01T15:18:40;9.2;;;6;;
49582;SDS011;36329;48.816;44.624;2023-01-01T15:21:42;10.2;;;5.8;;
49582;SDS011;36329;48.816;44.624;2023-01-01T15:24:44;7.9;;;5.2;;
49582;SDS011;36329;48.816;44.624;2023-01-01T15:27:47;9.9;;;5.7;;
49582;SDS011;36329;48.816;44.624;2023-01-01T15:30:51;8.2;;;5.4;;
49582;SDS011;36329;48.816;44.624;2023-01-01T15:33:54;9.3;;;5.5;;
49582;SDS011;36329;48.816;44.624;2023-01-01T15:37:03;8.1;;;5.8;;
49582;SDS011;36329;48.816;44.624;2023-01-01T15:43:32;9.6;;;5.7;;
49582;SDS011;36329;48.816;44.624;2023-01-01T15:46:33;8.2;;;5.6;;
49582;SDS011;36329;48.816;44.624;2023-01-01T15:49:35;8;;;5.1;;
49582;SDS011;36329;48.816;44.624;2023-01-01T15:52:37;7.6;;;5.2;;
49582;SDS011;36329;48.816;44.624;2023-01-01T15:55:45;7.6;;;5.2;;
49582;SDS011;36329;48.816;44.624;2023-01-01T15:58:55;8.7;;;5.6;;
49582;SDS011;36329;48.816;44.624;2023-01-01T16:02:01;8.5;;;5.5;;
49582;SDS011;36329;48.816;44.624;2023-01-01T16:05:11;8.1;;;5.3;;
49582;SDS011;36329;48.816;44.624;2023-01-01T16:08:15;10.1;;;5.5;;
49582;SDS011;36329;48.816;44.624;2023-01-01T16:11:16;8.8;;;5.8;;
49582;SDS011;36329;48.816;44.624;2023-01-01T16:14:18;9.4;;;5.5;;
49582;SDS011;36329;48.816;44.624;2023-01-01T16:17:19;8.7;;;5.8;;
49582;SDS011;36329;48.816;44.624;2023-01-01T16:20:25;9.4;;;5.7;;
49582;SDS011;36329;48.816;44.624;2023-01-01T16:23:28;9.8;;;5.6;;
49582;SDS011;36329;48.816;44.624;2023-01-01T16:26:30;8.6;;;5.6;;
49582;SDS011;36329;48.816;44.624;2023-01-01T16:29:31;10.4;;;6;;
49582;SDS011;36329;48.816;44.624;2023-01-01T16:32:33;9.6;;;5.8;;
49582;SDS011;36329;48.816;44.624;2023-01-01T16:35:34;9.4;;;5.7;;
49582;SDS011;36329;48.816;44.624;2023-01-01T16:38:36;10.1;;;6.6;;
49582;SDS011;36329;48.816;44.624;2023-01-01T16:41:38;9.8;;;6.4;;
49582;SDS011;36329;48.816;44.624;2023-01-01T16:44:41;8.4;;;5.7;;
49582;SDS011;36329;48.816;44.624;2023-01-01T16:47:42;11.6;;;6;;
49582;SDS011;36329;48.816;44.624;2023-01-01T16:50:44;9;;;5.8;;
49582;SDS011;36329;48.816;44.624;2023-01-01T16:53:53;8.1;;;5.9;;
49582;SDS011;36329;48.816;44.624;2023-01-01T16:56:55;9.4;;;6.4;;
49582;SDS011;36329;48.816;44.624;2023-01-01T16:59:57;8.4;;;5.8;;
49582;SDS011;36329;48.816;44.624;2023-01-01T17:02:58;9.2;;;5.8;;
49582;SDS011;36329;48.816;44.624;2023-01-01T17:06:02;8;;;5.8;;
49582;SDS011;36329;48.816;44.624;2023-01-01T17:09:04;10.8;;;6.3;;
49582;SDS011;36329;48.816;44.624;2023-01-01T17:12:07;9.3;;;5.8;;
49582;SDS011;36329;48.816;44.624;2023-01-01T17:15:08;8;;;5.4;;
49582;SDS011;36329;48.816;44.624;2023-01-01T17:18:10;8.9;;;5.3;;
49582;SDS011;36329;48.816;44.624;2023-01-01T17:21:12;8.1;;;5.4;;
49582;SDS011;36329;48.816;44.624;2023-01-01T17:24:14;8.1;;;5.6;;
49582;SDS011;36329;48.816;44.624;2023-01-01T17:27:16;8.2;;;5.6;;
49582;SDS011;36329;48.816;44.624;2023-01-01T17:30:18;10.4;;;5.8;;
49582;SDS011;36329;48.816;44.624;2023-01-01T17:33:19;8.2;;;5.7;;
49582;SDS011;36329;48.816;44.624;2023-01-01T17:36:21;9.3;;;5.6;;
49582;SDS011;36329;48.816;44.624;2023-01-01T17:39:23;10.4;;;6;;
49582;SDS011;36329;48.816;44.624;2023-01-01T17:42:25;7.7;;;5.5;;
49582;SDS011;36329;48.816;44.624;2023-01-01T17:45:27;8.7;;;5.5;;
49582;SDS011;36329;48.816;44.624;2023-01-01T17:48:28;11.2;;;6.1;;
49582;SDS011;36329;48.816;44.624;2023-01-01T17:51:30;8.3;;;5.5;;
49582;SDS011;36329;48.816;44.624;2023-01-01T17:54:33;9.9;;;5.5;;
49582;SDS011;36329;48.816;44.624;2023-01-01T17:57:34;9.6;;;5.7;;
49582;SDS011;36329;48.816;44.624;2023-01-01T18:00:36;8.7;;;5.8;;
49582;SDS011;36329;48.816;44.624;2023-01-01T18:03:38;10.4;;;6.1;;
49582;SDS011;36329;48.816;44.624;2023-01-01T18:06:41;9.2;;;6.1;;
49582;SDS011;36329;48.816;44.624;2023-01-01T18:09:42;9.2;;;5.1;;
49582;SDS011;36329;48.816;44.624;2023-01-01T18:12:44;8.9;;;5.9;;
49582;SDS011;36329;48.816;44.624;2023-01-01T18:15:45;9.9;;;6.1;;
49582;SDS011;36329;48.816;44.624;2023-01-01T18:18:47;10.1;;;6.2;;
49582;SDS011;36329;48.816;44.624;2023-01-01T18:21:49;8.4;;;6;;
49582;SDS011;36329;48.816;44.624;2023-01-01T18:24:50;10.8;;;6.4;;
49582;SDS011;36329;48.816;44.624;2023-01-01T18:27:52;10.4;;;6.1;;
49582;SDS011;36329;48.816;44.624;2023-01-01T18:30:54;7.9;;;5.2;;
49582;SDS011;36329;48.816;44.624;2023-01-01T18:33:56;9.3;;;5.9;;
49582;SDS011;36329;48.816;44.624;2023-01-01T18:36:59;8.5;;;6;;
49582;SDS011;36329;48.816;44.624;2023-01-01T18:40:00;8.8;;;6.3;;
49582;SDS011;36329;48.816;44.624;2023-01-01T18:43:03;8.7;;;6.2;;
49582;SDS011;36329;48.816;44.624;2023-01-01T18:46:12;8.7;;;5.8;;
49582;SDS011;36329;48.816;44.624;2023-01-01T18:49:13;9.3;;;6.2;;
49582;SDS011;36329;48.816;44.624;2023-01-01T18:52:16;8.7;;;6;;
49582;SDS011;36329;48.816;44.624;2023-01-01T18:55:22;9.2;;;6.2;;
49582;SDS011;36329;48.816;44.624;2023-01-01T18:58:24;11;;;6.5;;
49582;SDS011;36329;48.816;44.624;2023-01-01T19:01:26;8.2;;;5.8;;